Shadow, Virginia
Current Conditions -  °F | °C
As of 11:54 AM on Tuesday 27 Jan 2015 (Local Time) from KPHF Reporting Station
Overcast Overcast  
Wind Chill: 28°   Ceiling: 2000
Heat Index: 36°   Visibility: 10mi
Dew Point: 26°   Wind: 12mph
Humidity: 67%   Direction: 350°N
Pressure: 29.78"   Gusts: NA
Location:  37.3533°N, 76.3099°W
Report Text: KPHF 271654Z 35010KT 10SM OVC020 02/M03 A2978 RMK AO2 SLP084 T00221033
Loading
Personal Weather Stations






























Interactive Weather Map New forecast layout! Learn more

10-Day Weather Forecast

Advertisements
Track Severe Weather on mobile